Time,TemperatureF,DewpointF,PressureIn,WindDirection,WindDirectionDegrees,WindSpeedMPH,WindSpeedGustMPH,Humidity,HourlyPrecipIn,Conditions,Clouds,dailyrainin,SolarRadiationWatts/m^2,SoftwareType,DateUTC
2013-02-09 00:00:00,42.4,33.3,30.01,WNW,292,14.0,14.0,70,0.00,,,0.70,0,Wunderground v.1.15,2013-02-09 05:00:00,
2013-02-09 00:05:00,42.3,31.7,30.01,NW,304,14.0,14.0,66,0.00,,,0.00,0,Wunderground v.1.15,2013-02-09 05:05:00,
2013-02-09 00:10:00,42.3,32.5,30.01,NW,313,14.0,15.0,68,0.00,,,0.00,0,Wunderground v.1.15,2013-02-09 05:10:00,
2013-02-09 00:15:00,42.2,32.4,30.01,NW,315,14.0,15.0,68,0.00,,,0.00,0,Wunderground v.1.15,2013-02-09 05:15:00,
2013-02-09 00:20:00,42.1,31.6,30.02,NW,317,14.0,18.0,66,0.00,,,0.00,0,Wunderground v.1.15,2013-02-09 05:20:00,
2013-02-09 00:25:00,42.1,33.0,30.02,NW,323,14.0,18.0,70,0.00,,,0.00,0,Wunderground v.1.15,2013-02-09 05:25:00,
2013-02-09 00:30:00,42.0,32.6,30.02,NW,306,14.0,15.0,69,0.00,,,0.00,0,Wunderground v.1.15,2013-02-09 05:30:00,
2013-02-09 00:35:00,42.0,32.6,30.02,NW,304,14.0,16.0,69,0.00,,,0.00,0,Wunderground v.1.15,2013-02-09 05:35:00,
2013-02-09 00:45:00,41.8,32.4,30.01,WNW,292,15.0,16.0,69,0.00,,,0.00,0,Wunderground v.1.15,2013-02-09 05:45:00,
2013-02-09 00:50:00,41.6,31.1,30.01,WNW,289,14.0,15.0,66,0.00,,,0.00,0,Wunderground v.1.15,2013-02-09 05:50:00,
2013-02-09 00:55:00,41.5,31.4,30.02,WNW,301,14.0,15.0,67,0.00,,,0.00,0,Wunderground v.1.15,2013-02-09 05:55:00,
2013-02-09 01:00:00,41.5,32.1,30.02,NW,319,14.0,14.0,69,0.00,,,0.00,0,Wunderground v.1.15,2013-02-09 06:00:00,
2013-02-09 01:10:00,41.3,32.2,30.02,NW,305,12.0,12.0,70,0.00,,,0.00,0,Wunderground v.1.15,2013-02-09 06:10:00,
2013-02-09 01:15:00,41.2,31.8,30.01,WNW,297,13.0,13.0,69,0.00,,,0.00,0,Wunderground v.1.15,2013-02-09 06:15:00,
2013-02-09 01:20:00,41.1,31.7,30.01,NW,306,13.0,16.0,69,0.00,,,0.00,0,Wunderground v.1.15,2013-02-09 06:20:00,
2013-02-09 01:25:00,41.1,32.1,30.02,WNW,292,14.0,16.0,70,0.00,,,0.00,0,Wunderground v.1.15,2013-02-09 06:25:00,
2013-02-09 01:35:00,41.0,32.0,30.03,NW,306,13.0,15.0,70,0.00,,,0.00,0,Wunderground v.1.15,2013-02-09 06:35:00,
2013-02-09 01:40:00,40.9,31.9,30.03,WNW,300,13.0,13.0,70,0.00,,,0.00,0,Wunderground v.1.15,2013-02-09 06:40:00,
2013-02-09 01:45:00,40.8,31.8,30.02,WNW,298,13.0,13.0,70,0.00,,,0.00,0,Wunderground v.1.15,2013-02-09 06:45:00,
2013-02-09 01:50:00,40.6,31.2,30.02,WNW,286,12.0,12.0,69,0.00,,,0.00,0,Wunderground v.1.15,2013-02-09 06:50:00,
2013-02-09 01:55:00,40.4,31.0,30.03,WNW,290,11.0,12.0,69,0.00,,,0.00,0,Wunderground v.1.15,2013-02-09 06:55:00,
2013-02-09 02:00:00,40.3,31.3,30.03,WNW,297,10.0,11.0,70,0.00,,,0.00,0,Wunderground v.1.15,2013-02-09 07:00:00,
2013-02-09 02:05:00,40.2,30.5,30.04,WNW,288,10.0,11.0,68,0.00,,,0.00,0,Wunderground v.1.15,2013-02-09 07:05:00,
2013-02-09 02:15:00,40.0,30.3,30.03,WNW,293,10.0,13.0,68,0.00,,,0.00,0,Wunderground v.1.15,2013-02-09 07:15:00,
2013-02-09 02:20:00,40.0,30.3,30.04,NW,304,10.0,10.0,68,0.00,,,0.00,0,Wunderground v.1.15,2013-02-09 07:20:00,
2013-02-09 02:30:00,39.8,31.5,30.04,WNW,294,9.0,9.0,72,0.00,,,0.00,0,Wunderground v.1.15,2013-02-09 07:30:00,
2013-02-09 02:35:00,39.9,30.9,30.03,WNW,291,9.0,10.0,70,0.00,,,0.00,0,Wunderground v.1.15,2013-02-09 07:35:00,
2013-02-09 02:40:00,39.8,30.5,30.04,WNW,292,10.0,10.0,69,0.00,,,0.00,0,Wunderground v.1.15,2013-02-09 07:40:00,
2013-02-09 02:45:00,39.7,29.6,30.04,WNW,292,9.0,10.0,67,0.00,,,0.00,0,Wunderground v.1.15,2013-02-09 07:45:00,
2013-02-09 02:50:00,39.7,31.8,30.04,NW,310,8.0,8.0,73,0.00,,,0.00,0,Wunderground v.1.15,2013-02-09 07:50:00,
2013-02-09 02:55:00,39.7,31.1,30.03,NW,313,9.0,9.0,71,0.00,,,0.00,0,Wunderground v.1.15,2013-02-09 07:55:00,
2013-02-09 03:00:00,39.7,31.4,30.03,NNW,333,10.0,10.0,72,0.00,,,0.00,0,Wunderground v.1.15,2013-02-09 08:00:00,
2013-02-09 03:05:00,39.6,31.0,30.03,NW,313,11.0,11.0,71,0.00,,,0.00,0,Wunderground v.1.15,2013-02-09 08:05:00,
2013-02-09 03:15:00,39.5,31.2,30.04,WNW,295,10.0,11.0,72,0.00,,,0.00,0,Wunderground v.1.15,2013-02-09 08:15:00,
2013-02-09 03:20:00,39.4,30.8,30.05,WNW,290,9.0,9.0,71,0.00,,,0.00,0,Wunderground v.1.15,2013-02-09 08:20:00,
2013-02-09 03:30:00,39.3,31.4,30.05,WNW,303,8.0,9.0,73,0.00,,,0.00,0,Wunderground v.1.15,2013-02-09 08:30:00,
2013-02-09 03:35:00,39.2,30.9,30.04,NW,317,8.0,11.0,72,0.00,,,0.00,0,Wunderground v.1.15,2013-02-09 08:35:00,
2013-02-09 03:40:00,39.2,31.3,30.04,NW,324,9.0,9.0,73,0.00,,,0.00,0,Wunderground v.1.15,2013-02-09 08:40:00,
2013-02-09 03:45:00,39.1,30.8,30.05,NW,304,8.0,9.0,72,0.00,,,0.00,0,Wunderground v.1.15,2013-02-09 08:45:00,
2013-02-09 03:50:00,39.0,30.7,30.05,WNW,297,7.0,7.0,72,0.00,,,0.00,0,Wunderground v.1.15,2013-02-09 08:50:00,
2013-02-09 03:55:00,38.8,30.2,30.05,WNW,298,6.0,7.0,71,0.00,,,0.00,0,Wunderground v.1.15,2013-02-09 08:55:00,
2013-02-09 04:05:00,38.4,29.8,30.05,WNW,298,7.0,8.0,71,0.00,,,0.00,0,Wunderground v.1.15,2013-02-09 09:05:00,
2013-02-09 04:10:00,38.4,30.5,30.06,NW,306,7.0,7.0,73,0.00,,,0.00,0,Wunderground v.1.15,2013-02-09 09:10:00,
2013-02-09 04:15:00,38.4,30.2,30.06,WNW,302,8.0,9.0,72,0.00,,,0.00,0,Wunderground v.1.15,2013-02-09 09:15:00,
2013-02-09 04:20:00,38.2,30.0,30.06,WNW,294,8.0,8.0,72,0.00,,,0.00,0,Wunderground v.1.15,2013-02-09 09:20:00,
2013-02-09 04:25:00,37.9,30.0,30.06,NW,318,5.0,8.0,73,0.00,,,0.00,0,Wunderground v.1.15,2013-02-09 09:25:00,
2013-02-09 04:35:00,37.3,29.4,30.07,NW,313,4.0,8.0,73,0.00,,,0.00,0,Wunderground v.1.15,2013-02-09 09:35:00,
2013-02-09 04:40:00,37.2,29.3,30.07,NW,316,5.0,6.0,73,0.00,,,0.00,0,Wunderground v.1.15,2013-02-09 09:40:00,
2013-02-09 04:45:00,37.3,30.4,30.07,NNW,334,6.0,6.0,76,0.00,,,0.00,0,Wunderground v.1.15,2013-02-09 09:45:00,
2013-02-09 04:50:00,37.6,30.1,30.07,WNW,292,6.0,7.0,74,0.00,,,0.00,0,Wunderground v.1.15,2013-02-09 09:50:00,
2013-02-09 05:00:00,37.8,29.2,30.08,WNW,292,6.0,6.0,71,0.00,,,0.00,0,Wunderground v.1.15,2013-02-09 10:00:00,
2013-02-09 05:05:00,37.8,30.6,30.09,WNW,299,6.0,6.0,75,0.00,,,0.00,0,Wunderground v.1.15,2013-02-09 10:05:00,
2013-02-09 05:10:00,37.6,29.0,30.09,WNW,290,5.0,5.0,71,0.00,,,0.00,0,Wunderground v.1.15,2013-02-09 10:10:00,
2013-02-09 05:15:00,37.6,29.7,30.10,WNW,302,5.0,5.0,73,0.00,,,0.00,0,Wunderground v.1.15,2013-02-09 10:15:00,
2013-02-09 05:20:00,37.3,29.1,30.10,NW,315,4.0,5.0,72,0.00,,,0.00,0,Wunderground v.1.15,2013-02-09 10:20:00,
2013-02-09 05:25:00,37.4,28.9,30.10,WNW,284,4.0,6.0,71,0.00,,,0.00,0,Wunderground v.1.15,2013-02-09 10:25:00,
2013-02-09 05:30:00,37.4,29.2,30.11,WNW,294,5.0,9.0,72,0.00,,,0.00,0,Wunderground v.1.15,2013-02-09 10:30:00,
2013-02-09 05:40:00,37.7,28.8,30.11,NW,305,7.0,7.0,70,0.00,,,0.00,0,Wunderground v.1.15,2013-02-09 10:40:00,
2013-02-09 05:45:00,37.9,29.0,30.12,NW,313,8.0,8.0,70,0.00,,,0.00,0,Wunderground v.1.15,2013-02-09 10:45:00,
2013-02-09 05:50:00,38.1,29.5,30.12,WNW,284,8.0,9.0,71,0.00,,,0.00,0,Wunderground v.1.15,2013-02-09 10:50:00,
2013-02-09 05:55:00,38.0,29.1,30.12,WNW,286,9.0,9.0,70,0.00,,,0.00,0,Wunderground v.1.15,2013-02-09 10:55:00,
2013-02-09 06:00:00,38.0,28.7,30.13,WNW,302,8.0,8.0,69,0.00,,,0.00,0,Wunderground v.1.15,2013-02-09 11:00:00,
2013-02-09 06:05:00,37.9,28.6,30.13,WNW,302,8.0,8.0,69,0.00,,,0.00,0,Wunderground v.1.15,2013-02-09 11:05:00,
2013-02-09 06:10:00,37.8,28.9,30.13,WNW,299,8.0,8.0,70,0.00,,,0.00,0,Wunderground v.1.15,2013-02-09 11:10:00,
2013-02-09 06:15:00,37.8,28.5,30.14,NW,305,7.0,8.0,69,0.00,,,0.00,0,Wunderground v.1.15,2013-02-09 11:15:00,
2013-02-09 06:20:00,37.8,28.5,30.14,WNW,299,7.0,8.0,69,0.00,,,0.00,0,Wunderground v.1.15,2013-02-09 11:20:00,
2013-02-09 06:30:00,37.5,28.6,30.15,NW,304,7.0,8.0,70,0.00,,,0.00,0,Wunderground v.1.15,2013-02-09 11:30:00,
2013-02-09 06:35:00,37.4,28.5,30.15,NW,311,8.0,8.0,70,0.00,,,0.00,0,Wunderground v.1.15,2013-02-09 11:35:00,
2013-02-09 06:40:00,37.5,28.9,30.16,NNW,345,7.0,7.0,71,0.00,,,0.00,0,Wunderground v.1.15,2013-02-09 11:40:00,
2013-02-09 06:50:00,37.4,28.2,30.16,WNW,290,6.0,6.0,69,0.00,,,0.00,0,Wunderground v.1.15,2013-02-09 11:50:00,
2013-02-09 06:55:00,37.3,28.1,30.17,WNW,288,5.0,9.0,69,0.00,,,0.00,0,Wunderground v.1.15,2013-02-09 11:55:00,
2013-02-09 07:00:00,37.2,28.7,30.17,NW,315,6.0,6.0,71,0.00,,,0.00,0,Wunderground v.1.15,2013-02-09 12:00:00,
2013-02-09 07:05:00,36.9,28.7,30.18,NW,307,7.0,7.0,72,0.00,,,0.00,0,Wunderground v.1.15,2013-02-09 12:05:00,
2013-02-09 07:10:00,36.6,27.7,30.18,North,11,6.0,6.0,70,0.00,,,0.00,5,Wunderground v.1.15,2013-02-09 12:10:00,
2013-02-09 07:20:00,35.5,26.3,30.19,North,5,1.0,1.0,69,0.00,,,0.00,9,Wunderground v.1.15,2013-02-09 12:20:00,
2013-02-09 07:30:00,35.0,25.1,30.20,NNE,25,0.0,1.0,67,0.00,,,0.00,12,Wunderground v.1.15,2013-02-09 12:30:00,
2013-02-09 07:35:00,34.8,25.0,30.20,NNE,25,1.0,1.0,67,0.00,,,0.00,14,Wunderground v.1.15,2013-02-09 12:35:00,
2013-02-09 07:40:00,34.7,25.2,30.20,NNE,25,1.0,1.0,68,0.00,,,0.00,16,Wunderground v.1.15,2013-02-09 12:40:00,
2013-02-09 07:45:00,34.6,25.1,30.21,NNE,25,1.0,1.0,68,0.00,,,0.00,18,Wunderground v.1.15,2013-02-09 12:45:00,
2013-02-09 07:50:00,34.6,25.5,30.21,NNE,25,0.0,1.0,69,0.00,,,0.00,18,Wunderground v.1.15,2013-02-09 12:50:00,
2013-02-09 07:55:00,34.6,26.2,30.22,NNE,25,0.0,1.0,71,0.00,,,0.00,19,Wunderground v.1.15,2013-02-09 12:55:00,
2013-02-09 08:00:00,34.6,27.2,30.22,NNW,327,1.0,3.0,74,0.00,,,0.00,21,Wunderground v.1.15,2013-02-09 13:00:00,
2013-02-09 08:05:00,34.9,27.8,30.23,NNW,331,2.0,4.0,75,0.00,,,0.00,21,Wunderground v.1.15,2013-02-09 13:05:00,
2013-02-09 08:10:00,35.3,27.8,30.23,NW,314,4.0,4.0,74,0.00,,,0.00,23,Wunderground v.1.15,2013-02-09 13:10:00,
2013-02-09 08:20:00,36.3,28.5,30.23,NW,314,7.0,10.0,73,0.00,,,0.00,25,Wunderground v.1.15,2013-02-09 13:20:00,
2013-02-09 08:25:00,36.5,28.0,30.24,NW,324,8.0,10.0,71,0.00,,,0.00,25,Wunderground v.1.15,2013-02-09 13:25:00,
2013-02-09 08:30:00,36.6,28.1,30.24,NW,310,8.0,8.0,71,0.00,,,0.00,26,Wunderground v.1.15,2013-02-09 13:30:00,
2013-02-09 08:35:00,36.8,27.6,30.24,NNW,327,8.0,8.0,69,0.00,,,0.00,26,Wunderground v.1.15,2013-02-09 13:35:00,
2013-02-09 08:40:00,36.9,28.0,30.24,NW,314,8.0,10.0,70,0.00,,,0.00,28,Wunderground v.1.15,2013-02-09 13:40:00,
2013-02-09 08:45:00,37.1,27.2,30.25,NW,306,8.0,10.0,67,0.00,,,0.00,32,Wunderground v.1.15,2013-02-09 13:45:00,
2013-02-09 08:55:00,37.5,27.5,30.25,NNW,333,8.0,9.0,67,0.00,,,0.00,33,Wunderground v.1.15,2013-02-09 13:55:00,
2013-02-09 09:00:00,37.6,26.9,30.25,NW,317,8.0,11.0,65,0.00,,,0.00,37,Wunderground v.1.15,2013-02-09 14:00:00,
2013-02-09 09:05:00,37.8,26.3,30.25,NW,310,9.0,11.0,63,0.00,,,0.00,225,Wunderground v.1.15,2013-02-09 14:05:00,
2013-02-09 09:10:00,37.9,27.5,30.25,NW,316,9.0,10.0,66,0.00,,,0.00,258,Wunderground v.1.15,2013-02-09 14:10:00,
2013-02-09 09:15:00,37.9,27.2,30.25,NNW,334,9.0,10.0,65,0.00,,,0.00,32,Wunderground v.1.15,2013-02-09 14:15:00,
2013-02-09 09:20:00,38.0,26.5,30.26,NNW,338,8.0,8.0,63,0.00,,,0.00,100,Wunderground v.1.15,2013-02-09 14:20:00,
2013-02-09 09:25:00,38.2,25.1,30.25,NW,306,8.0,9.0,59,0.00,,,0.00,95,Wunderground v.1.15,2013-02-09 14:25:00,
2013-02-09 09:30:00,38.4,25.3,30.25,WNW,298,9.0,10.0,59,0.00,,,0.00,74,Wunderground v.1.15,2013-02-09 14:30:00,
2013-02-09 09:35:00,38.7,26.0,30.26,NW,310,10.0,10.0,60,0.00,,,0.00,151,Wunderground v.1.15,2013-02-09 14:35:00,
2013-02-09 09:40:00,38.8,26.1,30.26,NW,315,10.0,10.0,60,0.00,,,0.00,104,Wunderground v.1.15,2013-02-09 14:40:00,
2013-02-09 09:45:00,38.9,25.8,30.26,NW,317,9.0,10.0,59,0.00,,,0.00,81,Wunderground v.1.15,2013-02-09 14:45:00,
2013-02-09 09:50:00,39.0,25.0,30.26,NNW,327,8.0,8.0,57,0.00,,,0.00,237,Wunderground v.1.15,2013-02-09 14:50:00,
2013-02-09 10:00:00,39.2,24.8,30.27,NW,321,8.0,8.0,56,0.00,,,0.00,234,Wunderground v.1.15,2013-02-09 15:00:00,
2013-02-09 10:05:00,39.4,26.7,30.27,NW,315,8.0,9.0,60,0.00,,,0.00,257,Wunderground v.1.15,2013-02-09 15:05:00,
2013-02-09 10:10:00,39.6,26.8,30.27,NW,312,8.0,11.0,60,0.00,,,0.00,309,Wunderground v.1.15,2013-02-09 15:10:00,
2013-02-09 10:15:00,39.7,26.1,30.27,NW,306,8.0,11.0,58,0.00,,,0.00,418,Wunderground v.1.15,2013-02-09 15:15:00,
2013-02-09 10:20:00,39.7,26.5,30.27,NW,307,8.0,8.0,59,0.00,,,0.00,515,Wunderground v.1.15,2013-02-09 15:20:00,
2013-02-09 10:25:00,39.8,24.5,30.27,NW,320,7.0,8.0,54,0.00,,,0.00,531,Wunderground v.1.15,2013-02-09 15:25:00,
2013-02-09 10:30:00,40.1,26.9,30.27,NW,317,7.0,7.0,59,0.00,,,0.00,540,Wunderground v.1.15,2013-02-09 15:30:00,
2013-02-09 10:40:00,40.3,26.3,30.28,NW,309,7.0,7.0,57,0.00,,,0.00,559,Wunderground v.1.15,2013-02-09 15:40:00,
2013-02-09 10:45:00,40.3,24.1,30.27,NW,323,7.0,9.0,52,0.00,,,0.00,571,Wunderground v.1.15,2013-02-09 15:45:00,
2013-02-09 10:50:00,40.6,24.8,30.28,NW,311,7.0,8.0,53,0.00,,,0.00,577,Wunderground v.1.15,2013-02-09 15:50:00,
2013-02-09 10:55:00,40.7,24.9,30.27,West,280,6.0,8.0,53,0.00,,,0.00,584,Wunderground v.1.15,2013-02-09 15:55:00,
2013-02-09 11:00:00,40.9,26.8,30.28,NW,309,5.0,6.0,57,0.00,,,0.00,594,Wunderground v.1.15,2013-02-09 16:00:00,
2013-02-09 11:05:00,41.1,27.0,30.28,WNW,301,5.0,7.0,57,0.00,,,0.00,601,Wunderground v.1.15,2013-02-09 16:05:00,
2013-02-09 11:10:00,41.2,24.9,30.28,NW,313,5.0,7.0,52,0.00,,,0.00,612,Wunderground v.1.15,2013-02-09 16:10:00,
2013-02-09 11:15:00,41.5,28.6,30.28,NW,309,7.0,8.0,60,0.00,,,0.00,621,Wunderground v.1.15,2013-02-09 16:15:00,
2013-02-09 11:20:00,41.6,26.2,30.28,NW,326,8.0,9.0,54,0.00,,,0.00,628,Wunderground v.1.15,2013-02-09 16:20:00,
2013-02-09 11:30:00,42.1,24.3,30.28,NE,48,8.0,8.0,49,0.00,,,0.00,636,Wunderground v.1.15,2013-02-09 16:30:00,
2013-02-09 11:35:00,42.4,26.5,30.28,NW,320,8.0,12.0,53,0.00,,,0.00,643,Wunderground v.1.15,2013-02-09 16:35:00,
2013-02-09 11:40:00,42.4,26.0,30.28,NW,323,9.0,12.0,52,0.00,,,0.00,649,Wunderground v.1.15,2013-02-09 16:40:00,
2013-02-09 11:45:00,42.5,26.1,30.28,WNW,285,9.0,12.0,52,0.00,,,0.00,654,Wunderground v.1.15,2013-02-09 16:45:00,
2013-02-09 11:50:00,42.5,26.1,30.28,WNW,302,8.0,8.0,52,0.00,,,0.00,657,Wunderground v.1.15,2013-02-09 16:50:00,
2013-02-09 11:55:00,42.5,25.1,30.28,WNW,299,8.0,8.0,50,0.00,,,0.00,661,Wunderground v.1.15,2013-02-09 16:55:00,
2013-02-09 12:00:00,42.8,26.4,30.28,WNW,303,8.0,8.0,52,0.00,,,0.00,663,Wunderground v.1.15,2013-02-09 17:00:00,
2013-02-09 12:10:00,43.1,26.7,30.27,NW,318,8.0,11.0,52,0.00,,,0.00,670,Wunderground v.1.15,2013-02-09 17:10:00,
2013-02-09 12:15:00,43.2,27.2,30.27,NW,315,8.0,11.0,53,0.00,,,0.00,673,Wunderground v.1.15,2013-02-09 17:15:00,
2013-02-09 12:20:00,43.5,24.1,30.27,NNE,16,8.0,10.0,46,0.00,,,0.00,673,Wunderground v.1.15,2013-02-09 17:20:00,
2013-02-09 12:25:00,43.9,26.9,30.27,NW,306,8.0,10.0,51,0.00,,,0.00,675,Wunderground v.1.15,2013-02-09 17:25:00,
2013-02-09 12:30:00,43.7,25.3,30.27,NW,323,9.0,9.0,48,0.00,,,0.00,675,Wunderground v.1.15,2013-02-09 17:30:00,
2013-02-09 12:35:00,43.7,25.3,30.27,NW,310,10.0,10.0,48,0.00,,,0.00,675,Wunderground v.1.15,2013-02-09 17:35:00,
2013-02-09 12:40:00,43.8,25.9,30.27,NW,318,11.0,11.0,49,0.00,,,0.00,675,Wunderground v.1.15,2013-02-09 17:40:00,
2013-02-09 12:45:00,43.9,27.4,30.27,NW,326,9.0,11.0,52,0.00,,,0.00,677,Wunderground v.1.15,2013-02-09 17:45:00,
2013-02-09 12:50:00,44.1,28.0,30.27,WNW,293,8.0,9.0,53,0.00,,,0.00,671,Wunderground v.1.15,2013-02-09 17:50:00,
2013-02-09 13:00:00,44.3,26.8,30.27,WNW,302,7.0,9.0,50,0.00,,,0.00,668,Wunderground v.1.15,2013-02-09 18:00:00,
2013-02-09 13:05:00,44.4,26.4,30.26,NW,311,9.0,9.0,49,0.00,,,0.00,668,Wunderground v.1.15,2013-02-09 18:05:00,
2013-02-09 13:10:00,44.5,26.5,30.26,NW,310,8.0,8.0,49,0.00,,,0.00,663,Wunderground v.1.15,2013-02-09 18:10:00,
2013-02-09 13:15:00,44.8,24.2,30.26,NW,324,7.0,8.0,44,0.00,,,0.00,659,Wunderground v.1.15,2013-02-09 18:15:00,
2013-02-09 13:20:00,45.1,25.5,30.26,WNW,296,8.0,9.0,46,0.00,,,0.00,657,Wunderground v.1.15,2013-02-09 18:20:00,
2013-02-09 13:25:00,45.2,23.4,30.26,WNW,289,10.0,10.0,42,0.00,,,0.00,649,Wunderground v.1.15,2013-02-09 18:25:00,
2013-02-09 13:30:00,45.3,25.2,30.25,NW,318,9.0,9.0,45,0.00,,,0.00,643,Wunderground v.1.15,2013-02-09 18:30:00,
2013-02-09 13:35:00,45.4,25.8,30.25,NW,316,9.0,10.0,46,0.00,,,0.00,640,Wunderground v.1.15,2013-02-09 18:35:00,
2013-02-09 13:40:00,45.9,26.8,30.26,NNW,333,9.0,9.0,47,0.00,,,0.00,633,Wunderground v.1.15,2013-02-09 18:40:00,
2013-02-09 13:45:00,45.9,25.7,30.26,NW,323,9.0,9.0,45,0.00,,,0.00,629,Wunderground v.1.15,2013-02-09 18:45:00,
2013-02-09 13:55:00,45.9,26.8,30.25,NW,309,8.0,11.0,47,0.00,,,0.00,617,Wunderground v.1.15,2013-02-09 18:55:00,
2013-02-09 14:00:00,46.1,23.7,30.26,NW,320,9.0,9.0,41,0.00,,,0.00,606,Wunderground v.1.15,2013-02-09 19:00:00,
2013-02-09 14:05:00,46.4,25.6,30.25,NW,309,8.0,9.0,44,0.00,,,0.00,598,Wunderground v.1.15,2013-02-09 19:05:00,
2013-02-09 14:10:00,46.7,23.0,30.25,NW,309,9.0,9.0,39,0.00,,,0.00,592,Wunderground v.1.15,2013-02-09 19:10:00,
2013-02-09 14:15:00,46.3,25.0,30.25,WNW,302,10.0,10.0,43,0.00,,,0.00,585,Wunderground v.1.15,2013-02-09 19:15:00,
2013-02-09 14:20:00,46.5,26.8,30.25,NW,318,8.0,9.0,46,0.00,,,0.00,575,Wunderground v.1.15,2013-02-09 19:20:00,
2013-02-09 14:25:00,46.5,27.3,30.25,NW,307,8.0,10.0,47,0.00,,,0.00,568,Wunderground v.1.15,2013-02-09 19:25:00,
2013-02-09 14:35:00,46.7,24.8,30.25,NW,321,7.0,10.0,42,0.00,,,0.00,548,Wunderground v.1.15,2013-02-09 19:35:00,
2013-02-09 14:40:00,47.1,27.4,30.25,NW,320,8.0,10.0,46,0.00,,,0.00,536,Wunderground v.1.15,2013-02-09 19:40:00,
2013-02-09 14:45:00,47.0,29.3,30.25,WNW,300,9.0,10.0,50,0.00,,,0.00,527,Wunderground v.1.15,2013-02-09 19:45:00,
2013-02-09 14:50:00,47.2,26.9,30.25,NW,308,9.0,10.0,45,0.00,,,0.00,513,Wunderground v.1.15,2013-02-09 19:50:00,
2013-02-09 14:55:00,47.0,28.3,30.25,NW,305,9.0,10.0,48,0.00,,,0.00,503,Wunderground v.1.15,2013-02-09 19:55:00,
2013-02-09 15:00:00,47.1,27.9,30.25,NW,321,10.0,11.0,47,0.00,,,0.00,496,Wunderground v.1.15,2013-02-09 20:00:00,
2013-02-09 15:10:00,47.5,28.8,30.24,WNW,302,10.0,10.0,48,0.00,,,0.00,468,Wunderground v.1.15,2013-02-09 20:10:00,
2013-02-09 15:15:00,47.4,27.6,30.25,WNW,301,8.0,12.0,46,0.00,,,0.00,452,Wunderground v.1.15,2013-02-09 20:15:00,
2013-02-09 15:20:00,47.8,26.9,30.25,NW,314,9.0,9.0,44,0.00,,,0.00,439,Wunderground v.1.15,2013-02-09 20:20:00,
2013-02-09 15:25:00,47.7,30.4,30.25,NW,321,8.0,9.0,51,0.00,,,0.00,424,Wunderground v.1.15,2013-02-09 20:25:00,
2013-02-09 15:30:00,47.7,25.7,30.25,NW,319,7.0,7.0,42,0.00,,,0.00,411,Wunderground v.1.15,2013-02-09 20:30:00,
2013-02-09 15:40:00,48.1,26.1,30.25,NW,315,9.0,9.0,42,0.00,,,0.00,385,Wunderground v.1.15,2013-02-09 20:40:00,
2013-02-09 15:45:00,48.4,27.5,30.25,NNW,327,9.0,9.0,44,0.00,,,0.00,373,Wunderground v.1.15,2013-02-09 20:45:00,
2013-02-09 15:50:00,48.1,28.8,30.25,NW,311,8.0,8.0,47,0.00,,,0.00,357,Wunderground v.1.15,2013-02-09 20:50:00,
2013-02-09 16:00:00,47.9,25.3,30.25,NW,306,8.0,8.0,41,0.00,,,0.00,327,Wunderground v.1.15,2013-02-09 21:00:00,
2013-02-09 16:05:00,48.2,28.4,30.25,NW,311,8.0,8.0,46,0.00,,,0.00,309,Wunderground v.1.15,2013-02-09 21:05:00,
2013-02-09 16:10:00,48.4,26.3,30.25,NW,313,7.0,8.0,42,0.00,,,0.00,295,Wunderground v.1.15,2013-02-09 21:10:00,
2013-02-09 16:15:00,48.4,29.6,30.25,NW,323,8.0,8.0,48,0.00,,,0.00,281,Wunderground v.1.15,2013-02-09 21:15:00,
2013-02-09 16:25:00,48.3,28.5,30.26,NW,308,8.0,8.0,46,0.00,,,0.00,244,Wunderground v.1.15,2013-02-09 21:25:00,
2013-02-09 16:35:00,48.6,29.8,30.26,NW,317,7.0,8.0,48,0.00,,,0.00,206,Wunderground v.1.15,2013-02-09 21:35:00,
2013-02-09 16:40:00,48.9,23.7,30.26,NNW,348,7.0,7.0,37,0.00,,,0.00,185,Wunderground v.1.15,2013-02-09 21:40:00,
2013-02-09 16:45:00,49.1,30.7,30.26,NW,309,5.0,7.0,49,0.00,,,0.00,163,Wunderground v.1.15,2013-02-09 21:45:00,
2013-02-09 16:50:00,48.6,31.3,30.27,WNW,303,5.0,5.0,51,0.00,,,0.00,142,Wunderground v.1.15,2013-02-09 21:50:00,
2013-02-09 16:55:00,48.4,28.0,30.27,WNW,296,5.0,5.0,45,0.00,,,0.00,123,Wunderground v.1.15,2013-02-09 21:55:00,
2013-02-09 17:00:00,48.9,25.6,30.28,NNW,336,5.0,5.0,40,0.00,,,0.00,104,Wunderground v.1.15,2013-02-09 22:00:00,
2013-02-09 17:05:00,49.1,23.9,30.27,NW,319,5.0,6.0,37,0.00,,,0.00,86,Wunderground v.1.15,2013-02-09 22:05:00,
2013-02-09 17:10:00,48.7,27.2,30.27,NW,317,5.0,5.0,43,0.00,,,0.00,70,Wunderground v.1.15,2013-02-09 22:10:00,
2013-02-09 17:15:00,48.5,28.6,30.27,NW,315,6.0,6.0,46,0.00,,,0.00,58,Wunderground v.1.15,2013-02-09 22:15:00,
2013-02-09 17:25:00,47.9,32.9,30.28,NW,306,4.0,5.0,56,0.00,,,0.00,32,Wunderground v.1.15,2013-02-09 22:25:00,
2013-02-09 17:30:00,47.4,33.8,30.28,NW,306,3.0,3.0,59,0.00,,,0.00,25,Wunderground v.1.15,2013-02-09 22:30:00,
2013-02-09 17:35:00,47.3,31.0,30.29,NW,306,3.0,3.0,53,0.00,,,0.00,16,Wunderground v.1.15,2013-02-09 22:35:00,
2013-02-09 17:40:00,47.3,31.5,30.29,NW,306,3.0,3.0,54,0.00,,,0.00,11,Wunderground v.1.15,2013-02-09 22:40:00,
2013-02-09 17:45:00,46.8,28.1,30.29,NNW,342,3.0,3.0,48,0.00,,,0.00,5,Wunderground v.1.15,2013-02-09 22:45:00,
2013-02-09 17:50:00,46.1,29.9,30.30,NNW,329,2.0,2.0,53,0.00,,,0.00,0,Wunderground v.1.15,2013-02-09 22:50:00,
2013-02-09 17:55:00,45.2,26.1,30.30,North,11,1.0,2.0,47,0.00,,,0.00,0,Wunderground v.1.15,2013-02-09 22:55:00,
2013-02-09 18:05:00,45.2,25.6,30.29,North,11,1.0,1.0,46,0.00,,,0.00,0,Wunderground v.1.15,2013-02-09 23:05:00,
2013-02-09 18:10:00,45.2,24.6,30.30,North,11,0.0,1.0,44,0.00,,,0.00,0,Wunderground v.1.15,2013-02-09 23:10:00,
2013-02-09 18:15:00,45.0,24.4,30.30,NNE,12,0.0,1.0,44,0.00,,,0.00,0,Wunderground v.1.15,2013-02-09 23:15:00,
2013-02-09 18:20:00,44.8,24.7,30.30,NNE,12,0.0,1.0,45,0.00,,,0.00,0,Wunderground v.1.15,2013-02-09 23:20:00,
2013-02-09 18:25:00,44.6,25.6,30.31,NNE,12,0.0,1.0,47,0.00,,,0.00,0,Wunderground v.1.15,2013-02-09 23:25:00,
2013-02-09 18:35:00,43.4,29.2,30.31,NNE,12,0.0,1.0,57,0.00,,,0.00,0,Wunderground v.1.15,2013-02-09 23:35:00,
2013-02-09 18:40:00,42.8,31.1,30.31,NNE,12,0.0,1.0,63,0.00,,,0.00,0,Wunderground v.1.15,2013-02-09 23:40:00,
2013-02-09 18:45:00,42.3,32.1,30.31,NNE,12,0.0,1.0,67,0.00,,,0.00,0,Wunderground v.1.15,2013-02-09 23:45:00,
2013-02-09 18:55:00,41.3,31.9,30.31,NNE,12,0.0,1.0,69,0.00,,,0.00,0,Wunderground v.1.15,2013-02-09 23:55:00,
2013-02-09 19:00:00,40.7,30.2,30.31,NNE,12,0.0,1.0,66,0.00,,,0.00,0,Wunderground v.1.15,2013-02-10 00:00:00,
2013-02-09 19:05:00,40.0,29.6,30.31,NNE,12,0.0,1.0,66,0.00,,,0.00,0,Wunderground v.1.15,2013-02-10 00:05:00,
2013-02-09 19:10:00,39.2,28.8,30.32,NNE,12,0.0,1.0,66,0.00,,,0.00,0,Wunderground v.1.15,2013-02-10 00:10:00,
2013-02-09 19:15:00,38.9,27.0,30.31,NNE,12,0.0,1.0,62,0.00,,,0.00,0,Wunderground v.1.15,2013-02-10 00:15:00,
2013-02-09 19:20:00,38.9,27.4,30.32,NNE,13,0.0,1.0,63,0.00,,,0.00,0,Wunderground v.1.15,2013-02-10 00:20:00,
2013-02-09 19:30:00,38.8,27.7,30.32,NNE,13,0.0,1.0,64,0.00,,,0.00,0,Wunderground v.1.15,2013-02-10 00:30:00,
2013-02-09 19:35:00,38.7,30.4,30.32,NNE,13,0.0,1.0,72,0.00,,,0.00,0,Wunderground v.1.15,2013-02-10 00:35:00,
2013-02-09 19:40:00,38.6,30.7,30.32,NNE,13,0.0,1.0,73,0.00,,,0.00,0,Wunderground v.1.15,2013-02-10 00:40:00,
2013-02-09 19:45:00,38.1,30.5,30.32,NNE,13,0.0,1.0,74,0.00,,,0.00,0,Wunderground v.1.15,2013-02-10 00:45:00,
2013-02-09 19:55:00,37.4,30.2,30.33,NNE,13,0.0,1.0,75,0.00,,,0.00,0,Wunderground v.1.15,2013-02-10 00:55:00,
2013-02-09 20:00:00,37.1,29.6,30.33,NNE,13,0.0,1.0,74,0.00,,,0.00,0,Wunderground v.1.15,2013-02-10 01:00:00,
2013-02-09 20:05:00,36.8,29.0,30.33,NNE,13,0.0,1.0,73,0.00,,,0.00,0,Wunderground v.1.15,2013-02-10 01:05:00,
2013-02-09 20:10:00,36.5,27.6,30.33,NNE,13,0.0,1.0,70,0.00,,,0.00,0,Wunderground v.1.15,2013-02-10 01:10:00,
2013-02-09 20:15:00,36.2,28.7,30.33,NNE,13,0.0,1.0,74,0.00,,,0.00,0,Wunderground v.1.15,2013-02-10 01:15:00,
2013-02-09 20:20:00,35.9,29.4,30.33,NNE,13,0.0,1.0,77,0.00,,,0.00,0,Wunderground v.1.15,2013-02-10 01:20:00,
2013-02-09 20:30:00,34.8,28.6,30.34,NNE,13,0.0,1.0,78,0.00,,,0.00,0,Wunderground v.1.15,2013-02-10 01:30:00,
2013-02-09 20:35:00,34.7,28.5,30.34,NNE,13,0.0,1.0,78,0.00,,,0.00,0,Wunderground v.1.15,2013-02-10 01:35:00,
2013-02-09 20:40:00,34.7,27.9,30.34,NNE,13,0.0,1.0,76,0.00,,,0.00,0,Wunderground v.1.15,2013-02-10 01:40:00,
2013-02-09 20:45:00,34.6,27.8,30.34,NNE,13,0.0,1.0,76,0.00,,,0.00,0,Wunderground v.1.15,2013-02-10 01:45:00,
2013-02-09 20:50:00,34.6,28.4,30.34,NNE,13,0.0,1.0,78,0.00,,,0.00,0,Wunderground v.1.15,2013-02-10 01:50:00,
2013-02-09 21:00:00,34.3,29.1,30.34,NNE,13,0.0,1.0,81,0.00,,,0.00,0,Wunderground v.1.15,2013-02-10 02:00:00,
2013-02-09 21:05:00,34.1,28.9,30.35,NNE,13,0.0,1.0,81,0.00,,,0.00,0,Wunderground v.1.15,2013-02-10 02:05:00,
2013-02-09 21:15:00,33.7,29.1,30.34,NNE,13,0.0,1.0,83,0.00,,,0.00,0,Wunderground v.1.15,2013-02-10 02:15:00,
2013-02-09 21:20:00,33.5,28.9,30.35,NNE,13,0.0,1.0,83,0.00,,,0.00,0,Wunderground v.1.15,2013-02-10 02:20:00,
2013-02-09 21:25:00,33.3,28.7,30.35,NNE,13,0.0,1.0,83,0.00,,,0.00,0,Wunderground v.1.15,2013-02-10 02:25:00,
2013-02-09 21:30:00,33.2,28.9,30.35,NNE,13,0.0,1.0,84,0.00,,,0.00,0,Wunderground v.1.15,2013-02-10 02:30:00,
2013-02-09 21:35:00,33.2,28.9,30.35,NNE,13,0.0,1.0,84,0.00,,,0.00,0,Wunderground v.1.15,2013-02-10 02:35:00,
2013-02-09 21:45:00,32.7,28.1,30.36,NNE,13,0.0,1.0,83,0.00,,,0.00,0,Wunderground v.1.15,2013-02-10 02:45:00,
2013-02-09 21:50:00,32.6,28.3,30.36,NNE,13,0.0,1.0,84,0.00,,,0.00,0,Wunderground v.1.15,2013-02-10 02:50:00,
2013-02-09 22:00:00,32.1,27.5,30.36,NNE,13,0.0,1.0,83,0.00,,,0.00,0,Wunderground v.1.15,2013-02-10 03:00:00,
2013-02-09 22:05:00,32.0,27.4,30.37,NNE,13,0.0,1.0,83,0.00,,,0.00,0,Wunderground v.1.15,2013-02-10 03:05:00,
2013-02-09 22:10:00,31.9,27.3,30.37,NNE,13,0.0,1.0,83,0.00,,,0.00,0,Wunderground v.1.15,2013-02-10 03:10:00,
2013-02-09 22:15:00,31.8,26.9,30.37,NNE,13,0.0,1.0,82,0.00,,,0.00,0,Wunderground v.1.15,2013-02-10 03:15:00,
2013-02-09 22:20:00,31.8,27.2,30.37,NNE,13,0.0,1.0,83,0.00,,,0.00,0,Wunderground v.1.15,2013-02-10 03:20:00,
2013-02-09 22:30:00,31.7,27.1,30.37,NNE,13,0.0,1.0,83,0.00,,,0.00,0,Wunderground v.1.15,2013-02-10 03:30:00,
2013-02-09 22:35:00,31.5,27.2,30.37,NNE,13,0.0,1.0,84,0.00,,,0.00,0,Wunderground v.1.15,2013-02-10 03:35:00,
2013-02-09 22:40:00,31.2,27.2,30.37,NNE,13,0.0,1.0,85,0.00,,,0.00,0,Wunderground v.1.15,2013-02-10 03:40:00,
2013-02-09 22:45:00,31.2,27.2,30.37,NNE,13,0.0,1.0,85,0.00,,,0.00,0,Wunderground v.1.15,2013-02-10 03:45:00,
2013-02-09 22:55:00,31.3,27.9,30.37,NNE,13,0.0,1.0,87,0.00,,,0.00,0,Wunderground v.1.15,2013-02-10 03:55:00,
2013-02-09 23:00:00,31.2,28.1,30.37,NNE,13,0.0,1.0,88,0.00,,,0.00,0,Wunderground v.1.15,2013-02-10 04:00:00,
2013-02-09 23:05:00,31.2,28.1,30.37,NNE,13,0.0,1.0,88,0.00,,,0.00,0,Wunderground v.1.15,2013-02-10 04:05:00,
2013-02-09 23:10:00,31.2,28.1,30.37,NNE,13,0.0,1.0,88,0.00,,,0.00,0,Wunderground v.1.15,2013-02-10 04:10:00,
2013-02-09 23:20:00,30.8,27.7,30.37,NNE,13,0.0,1.0,88,0.00,,,0.00,0,Wunderground v.1.15,2013-02-10 04:20:00,
2013-02-09 23:25:00,30.6,27.5,30.37,NNE,13,0.0,1.0,88,0.00,,,0.00,0,Wunderground v.1.15,2013-02-10 04:25:00,
2013-02-09 23:30:00,30.5,27.6,30.37,NNE,13,0.0,1.0,89,0.00,,,0.00,0,Wunderground v.1.15,2013-02-10 04:30:00,
2013-02-09 23:35:00,30.5,27.6,30.37,NNE,13,0.0,1.0,89,0.00,,,0.00,0,Wunderground v.1.15,2013-02-10 04:35:00,
2013-02-09 23:40:00,30.5,27.6,30.37,NNE,13,0.0,1.0,89,0.00,,,0.00,0,Wunderground v.1.15,2013-02-10 04:40:00,
2013-02-09 23:45:00,30.4,27.5,30.38,NNE,13,0.0,1.0,89,0.00,,,0.00,0,Wunderground v.1.15,2013-02-10 04:45:00,
2013-02-09 23:50:00,30.3,27.4,30.38,NNE,13,0.0,1.0,89,0.00,,,0.00,0,Wunderground v.1.15,2013-02-10 04:50:00,
2013-02-09 23:55:00,30.2,27.3,30.38,NNE,13,0.0,1.0,89,0.00,,,0.00,0,Wunderground v.1.15,2013-02-10 04:55:00,